createdAt,value
2022-11-10T00:02:39.668Z,5.72
2022-11-10T00:05:25.994Z,5.74
2022-11-10T00:08:13.888Z,5.73
2022-11-10T00:11:07.176Z,6.06
2022-11-10T00:14:13.173Z,5.75
2022-11-10T00:17:02.785Z,5.93
2022-11-10T00:19:49.646Z,5.91
2022-11-10T00:22:38.658Z,5.88
2022-11-10T00:25:26.975Z,5.85
2022-11-10T00:28:13.229Z,5.85
2022-11-10T00:31:04.927Z,5.66
2022-11-10T00:33:51.604Z,5.54
2022-11-10T00:36:39.100Z,5.70
2022-11-10T00:39:25.875Z,5.44
2022-11-10T00:42:12.626Z,5.61
2022-11-10T00:44:58.983Z,5.43
2022-11-10T00:47:47.010Z,5.42
2022-11-10T00:50:33.776Z,5.01
2022-11-10T00:53:21.085Z,5.21
2022-11-10T00:56:10.696Z,5.13
2022-11-10T00:58:57.391Z,5.18
2022-11-10T01:01:44.283Z,5.29
2022-11-10T01:04:31.112Z,5.45
2022-11-10T01:07:17.379Z,5.19
2022-11-10T01:10:05.317Z,4.97
2022-11-10T01:12:51.587Z,5.49
2022-11-10T01:15:43.076Z,5.33
2022-11-10T01:18:29.554Z,5.07
2022-11-10T01:21:16.515Z,5.00
2022-11-10T01:24:02.967Z,5.11
2022-11-10T01:26:49.820Z,5.35
2022-11-10T01:29:36.095Z,5.47
2022-11-10T01:32:22.996Z,5.51
2022-11-10T01:35:09.958Z,5.35
2022-11-10T01:37:57.033Z,5.50
2022-11-10T01:40:44.553Z,5.52
2022-11-10T01:43:31.300Z,5.56
2022-11-10T01:46:17.478Z,5.59
2022-11-10T01:49:05.310Z,5.61
2022-11-10T01:52:09.844Z,5.53
2022-11-10T01:54:56.592Z,5.34
2022-11-10T01:57:43.137Z,5.38
2022-11-10T02:00:29.947Z,5.67
2022-11-10T02:03:40.554Z,5.51
2022-11-10T02:06:31.889Z,5.79
2022-11-10T02:09:19.122Z,5.75
2022-11-10T02:12:07.850Z,5.71
2022-11-10T02:14:54.794Z,5.82
2022-11-10T02:17:42.121Z,5.79
2022-11-10T02:20:28.735Z,5.80
2022-11-10T02:23:30.835Z,5.43
2022-11-10T02:26:24.004Z,5.20
2022-11-10T02:29:10.842Z,5.66
2022-11-10T02:31:57.617Z,5.59
2022-11-10T02:34:44.652Z,5.68
2022-11-10T02:37:31.664Z,5.62
2022-11-10T02:40:18.833Z,5.59
2022-11-10T02:43:12.774Z,5.59
2022-11-10T02:45:59.740Z,5.47
2022-11-10T02:48:46.532Z,5.23
2022-11-10T02:51:33.425Z,5.40
2022-11-10T02:54:19.949Z,5.17
2022-11-10T02:57:06.952Z,5.26
2022-11-10T02:59:53.212Z,4.90
2022-11-10T03:02:39.927Z,4.86
2022-11-10T03:05:26.363Z,4.90
2022-11-10T03:08:13.283Z,5.38
2022-11-10T03:10:59.902Z,5.39
2022-11-10T03:14:00.995Z,5.40
2022-11-10T03:16:48.563Z,5.20
2022-11-10T03:19:35.608Z,5.43
2022-11-10T03:22:22.165Z,5.41
2022-11-10T03:25:10.033Z,5.31
2022-11-10T03:27:56.625Z,5.44
2022-11-10T03:30:44.251Z,5.30
2022-11-10T03:33:30.909Z,5.14
2022-11-10T03:36:17.813Z,5.34
2022-11-10T03:39:04.547Z,5.08
2022-11-10T03:41:50.879Z,5.18
2022-11-10T03:44:37.737Z,5.36
2022-11-10T03:47:24.401Z,5.13
2022-11-10T03:50:10.978Z,5.35
2022-11-10T03:52:57.606Z,5.20
2022-11-10T03:55:44.079Z,5.21
2022-11-10T03:58:30.772Z,5.21
2022-11-10T04:01:17.416Z,5.18
2022-11-10T04:04:04.333Z,5.08
2022-11-10T04:07:09.705Z,5.14
2022-11-10T04:09:56.496Z,4.95
2022-11-10T04:13:01.920Z,5.09
2022-11-10T04:15:48.818Z,5.13
2022-11-10T04:18:35.464Z,5.06
2022-11-10T04:21:22.102Z,4.80
2022-11-10T04:24:09.555Z,5.01
2022-11-10T04:26:56.257Z,4.69
2022-11-10T04:29:42.687Z,4.75
2022-11-10T04:32:29.632Z,4.95
2022-11-10T04:35:16.041Z,4.65
2022-11-10T04:38:02.888Z,4.89
2022-11-10T04:40:49.647Z,4.82
2022-11-10T04:43:36.350Z,5.34
2022-11-10T04:46:34.833Z,5.48
2022-11-10T04:49:21.394Z,5.40
2022-11-10T04:52:08.140Z,5.63
2022-11-10T04:54:54.590Z,5.73
2022-11-10T04:57:42.311Z,5.64
2022-11-10T05:00:28.950Z,5.64
2022-11-10T05:03:15.696Z,5.57
2022-11-10T05:06:02.369Z,5.50
2022-11-10T05:08:49.144Z,5.48
2022-11-10T05:11:35.720Z,5.07
2022-11-10T05:14:22.239Z,5.43
2022-11-10T05:17:08.943Z,5.36
2022-11-10T05:19:55.606Z,5.32
2022-11-10T05:23:08.582Z,5.28
2022-11-10T05:25:55.375Z,5.05
2022-11-10T05:28:44.488Z,5.09
2022-11-10T05:31:31.356Z,5.00
2022-11-10T05:34:17.956Z,4.88
2022-11-10T05:37:04.585Z,4.97
2022-11-10T05:39:51.235Z,4.67
2022-11-10T05:42:53.002Z,4.82
2022-11-10T05:45:39.717Z,4.90
2022-11-10T05:48:26.448Z,4.61
2022-11-10T05:51:13.099Z,4.76
2022-11-10T05:53:59.672Z,4.24
2022-11-10T05:56:46.440Z,4.69
2022-11-10T05:59:33.304Z,4.88
2022-11-10T06:02:20.144Z,4.68
2022-11-10T06:05:07.933Z,5.08
2022-11-10T06:07:54.404Z,5.10
2022-11-10T06:10:41.221Z,5.02
2022-11-10T06:13:27.951Z,5.36
2022-11-10T06:16:14.751Z,5.46
2022-11-10T06:19:02.081Z,5.17
2022-11-10T06:21:49.382Z,5.37
2022-11-10T06:24:36.470Z,5.77
2022-11-10T06:27:23.226Z,5.93
2022-11-10T06:30:11.083Z,5.83
2022-11-10T06:32:59.054Z,6.15
2022-11-10T06:35:46.188Z,6.32
2022-11-10T06:38:32.899Z,6.40
2022-11-10T06:41:25.057Z,6.60
2022-11-10T06:44:12.370Z,6.57
2022-11-10T06:46:59.267Z,6.60
2022-11-10T06:49:45.880Z,6.74
2022-11-10T06:52:32.767Z,6.64
2022-11-10T06:55:19.587Z,6.62
2022-11-10T06:58:06.582Z,6.66
2022-11-10T07:00:54.625Z,6.70
2022-11-10T07:04:05.117Z,6.82
2022-11-10T07:06:48.430Z,6.84
2022-11-10T07:09:35.066Z,6.86
2022-11-10T07:12:22.214Z,6.12
2022-11-10T07:15:10.128Z,6.91
2022-11-10T07:17:57.422Z,6.94
2022-11-10T07:20:44.188Z,6.73
2022-11-10T07:23:35.148Z,7.00
2022-11-10T07:26:21.756Z,7.07
2022-11-10T07:29:08.758Z,7.17
2022-11-10T07:31:56.507Z,7.22
2022-11-10T07:34:43.192Z,7.27
2022-11-10T07:37:30.646Z,7.13
2022-11-10T07:40:17.444Z,7.10
2022-11-10T07:43:04.287Z,7.35
2022-11-10T07:45:52.410Z,7.10
2022-11-10T07:48:38.837Z,7.47
2022-11-10T07:51:27.143Z,7.53
2022-11-10T07:54:14.104Z,7.38
2022-11-10T07:57:00.844Z,7.63
2022-11-10T07:59:47.412Z,7.65
2022-11-10T08:02:33.765Z,7.68
2022-11-10T08:05:20.742Z,7.76
2022-11-10T08:08:08.080Z,7.43
2022-11-10T08:10:58.052Z,7.73
2022-11-10T08:13:44.887Z,7.77
2022-11-10T08:16:31.617Z,7.71
2022-11-10T08:19:18.023Z,7.66
2022-11-10T08:22:05.210Z,7.76
2022-11-10T08:24:51.516Z,7.52
2022-11-10T08:27:38.532Z,7.45
2022-11-10T08:30:25.089Z,7.74
2022-11-10T08:33:15.995Z,7.67
2022-11-10T08:36:03.073Z,7.79
2022-11-10T08:38:50.317Z,7.76
2022-11-10T08:41:36.891Z,7.82
2022-11-10T08:44:25.109Z,7.82
2022-11-10T08:47:11.468Z,7.76
2022-11-10T08:49:58.336Z,7.59
2022-11-10T08:52:44.651Z,7.58
2022-11-10T08:55:31.559Z,7.59
2022-11-10T08:58:24.054Z,7.68
2022-11-10T09:01:12.115Z,7.87
2022-11-10T09:03:58.389Z,7.81
2022-11-10T09:06:45.425Z,7.81
2022-11-10T09:09:31.847Z,7.86
2022-11-10T09:12:18.789Z,7.91
2022-11-10T09:15:08.798Z,7.73
2022-11-10T09:17:59.002Z,7.85
2022-11-10T09:20:45.780Z,7.92
2022-11-10T09:23:32.574Z,7.92
2022-11-10T09:26:19.354Z,7.93
2022-11-10T09:29:08.449Z,7.97
2022-11-10T09:31:55.348Z,7.99
2022-11-10T09:34:44.175Z,8.03
2022-11-10T09:37:32.320Z,8.00
2022-11-10T09:40:28.494Z,7.85
2022-11-10T09:43:46.871Z,7.98
2022-11-10T09:46:41.960Z,8.20
2022-11-10T09:50:02.502Z,8.29
2022-11-10T09:52:50.412Z,8.37
2022-11-10T09:55:53.868Z,8.48
2022-11-10T09:58:44.387Z,8.22
2022-11-10T10:01:54.861Z,8.39
2022-11-10T10:05:11.739Z,8.71
2022-11-10T10:08:11.178Z,8.65
2022-11-10T10:11:19.029Z,8.78
2022-11-10T10:14:27.829Z,8.44
2022-11-10T10:17:39.751Z,8.83
2022-11-10T10:20:33.394Z,8.84
2022-11-10T10:23:54.460Z,8.88
2022-11-10T10:26:54.738Z,8.83
2022-11-10T10:29:45.714Z,8.86
2022-11-10T10:32:32.668Z,8.58
2022-11-10T10:35:19.631Z,8.49
2022-11-10T10:38:20.550Z,8.77
2022-11-10T10:41:33.661Z,8.75
2022-11-10T10:44:20.734Z,8.72
2022-11-10T10:47:07.704Z,8.84
2022-11-10T10:50:15.554Z,8.88
2022-11-10T10:53:19.783Z,8.76
2022-11-10T10:56:14.533Z,8.99
2022-11-10T10:59:06.566Z,8.97
2022-11-10T11:01:54.837Z,8.63
2022-11-10T11:04:41.638Z,8.88
2022-11-10T11:07:28.163Z,9.19
2022-11-10T11:10:24.349Z,9.02
2022-11-10T11:13:24.988Z,8.81
2022-11-10T11:16:12.867Z,9.12
2022-11-10T11:18:59.964Z,9.35
2022-11-10T11:22:17.736Z,9.37
2022-11-10T11:25:38.450Z,9.39
2022-11-10T11:28:42.435Z,9.27
2022-11-10T11:32:00.250Z,9.56
2022-11-10T11:35:11.267Z,9.66
2022-11-10T11:38:16.083Z,9.65
2022-11-10T11:41:20.927Z,9.67
2022-11-10T11:44:42.707Z,9.71
2022-11-10T11:48:49.954Z,9.68
2022-11-10T11:51:58.152Z,9.76
2022-11-10T11:54:48.008Z,9.75
2022-11-10T11:57:56.759Z,9.68
2022-11-10T12:01:22.905Z,9.80
2022-11-10T12:04:40.226Z,9.89
2022-11-10T12:07:57.548Z,9.86
2022-11-10T12:11:02.663Z,9.98
2022-11-10T12:14:22.453Z,9.86
2022-11-10T12:17:32.570Z,9.65
2022-11-10T12:21:03.359Z,9.94
2022-11-10T12:24:28.300Z,10.01
2022-11-10T12:27:30.656Z,10.01
2022-11-10T12:30:18.880Z,10.09
2022-11-10T12:33:26.837Z,10.01
2022-11-10T12:36:17.944Z,10.00
2022-11-10T12:39:22.091Z,9.98
2022-11-10T12:42:23.271Z,9.95
2022-11-10T12:45:29.200Z,9.96
2022-11-10T12:48:17.938Z,9.92
2022-11-10T12:51:21.949Z,9.67
2022-11-10T12:54:16.711Z,9.76
2022-11-10T12:57:14.399Z,9.86
2022-11-10T13:00:28.962Z,9.91
2022-11-10T13:03:32.773Z,9.68
2022-11-10T13:06:35.799Z,9.89
2022-11-10T13:09:39.262Z,9.92
2022-11-10T13:12:26.107Z,9.83
2022-11-10T13:15:37.744Z,10.04
2022-11-10T13:18:32.604Z,10.04
2022-11-10T13:21:19.392Z,9.88
2022-11-10T13:24:28.284Z,10.13
2022-11-10T13:27:43.495Z,10.00
2022-11-10T13:30:40.020Z,10.22
2022-11-10T13:33:26.710Z,10.30
2022-11-10T13:36:47.649Z,10.41
2022-11-10T13:39:34.945Z,10.16
2022-11-10T13:42:25.033Z,10.27
2022-11-10T13:45:40.090Z,10.34
2022-11-10T13:48:45.137Z,10.36
2022-11-10T13:52:11.777Z,10.34
2022-11-10T13:55:29.368Z,10.34
2022-11-10T13:58:28.713Z,10.10
2022-11-10T14:01:18.759Z,10.38
2022-11-10T14:04:05.367Z,10.31
2022-11-10T14:06:57.310Z,10.51
2022-11-10T14:09:50.823Z,10.46
2022-11-10T14:12:46.911Z,10.42
2022-11-10T14:15:54.420Z,10.44
2022-11-10T14:18:52.702Z,10.45
2022-11-10T14:21:57.922Z,10.43
2022-11-10T14:25:14.218Z,10.31
2022-11-10T14:28:02.110Z,9.94
2022-11-10T14:30:53.605Z,10.00
2022-11-10T14:33:40.437Z,9.92
2022-11-10T14:36:27.138Z,9.95
2022-11-10T14:39:16.390Z,9.63
2022-11-10T14:42:05.759Z,9.71
2022-11-10T14:45:07.928Z,9.72
2022-11-10T14:47:56.992Z,9.78
2022-11-10T14:50:44.014Z,9.81
2022-11-10T14:53:35.081Z,9.78
2022-11-10T14:56:42.857Z,9.68
2022-11-10T14:59:29.658Z,9.64
2022-11-10T15:02:19.924Z,9.11
2022-11-10T15:05:09.362Z,9.42
2022-11-10T15:07:58.444Z,9.00
2022-11-10T15:10:49.507Z,9.36
2022-11-10T15:13:39.592Z,9.14
2022-11-10T15:16:28.889Z,9.32
2022-11-10T15:19:32.148Z,9.36
2022-11-10T15:22:30.982Z,9.31
2022-11-10T15:25:22.516Z,9.27
2022-11-10T15:28:29.620Z,9.31
2022-11-10T15:32:13.131Z,9.26
2022-11-10T15:35:28.946Z,9.15
2022-11-10T15:38:30.375Z,8.90
2022-11-10T15:41:27.448Z,8.99
2022-11-10T15:44:23.486Z,8.96
2022-11-10T15:47:12.751Z,9.03
2022-11-10T15:50:01.219Z,8.96
2022-11-10T15:52:47.873Z,8.50
2022-11-10T15:55:34.699Z,8.92
2022-11-10T15:58:23.785Z,8.87
2022-11-10T16:01:13.584Z,8.62
2022-11-10T16:04:00.658Z,8.91
2022-11-10T16:06:47.963Z,8.87
2022-11-10T16:09:34.963Z,8.97
2022-11-10T16:12:23.038Z,8.95
2022-11-10T16:15:19.143Z,8.85
2022-11-10T16:18:20.722Z,8.59
2022-11-10T16:21:21.584Z,8.65
2022-11-10T16:24:09.421Z,8.63
2022-11-10T16:26:55.818Z,8.72
2022-11-10T16:29:43.836Z,9.04
2022-11-10T16:32:30.752Z,8.98
2022-11-10T16:35:17.687Z,9.21
2022-11-10T16:38:17.970Z,9.15
2022-11-10T16:41:11.513Z,9.18
2022-11-10T16:43:58.298Z,9.22
2022-11-10T16:46:56.110Z,9.24
2022-11-10T16:49:45.102Z,9.10
2022-11-10T16:52:31.664Z,8.98
2022-11-10T16:55:18.458Z,9.15
2022-11-10T16:58:04.946Z,9.21
2022-11-10T17:00:51.729Z,9.11
2022-11-10T17:03:47.549Z,9.19
2022-11-10T17:06:34.669Z,9.02
2022-11-10T17:09:28.378Z,8.82
2022-11-10T17:12:15.693Z,9.16
2022-11-10T17:15:02.486Z,9.08
2022-11-10T17:17:54.471Z,9.29
2022-11-10T17:20:46.593Z,9.30
2022-11-10T17:23:35.420Z,9.31
2022-11-10T17:27:12.313Z,9.32
2022-11-10T17:29:59.136Z,9.31
2022-11-10T17:33:04.103Z,9.38
2022-11-10T17:35:53.481Z,9.33
2022-11-10T17:38:41.910Z,9.17
2022-11-10T17:41:28.878Z,9.31
2022-11-10T17:44:16.610Z,9.36
2022-11-10T17:47:03.164Z,9.40
2022-11-10T17:49:49.679Z,9.20
2022-11-10T17:52:36.160Z,9.42
2022-11-10T17:55:29.789Z,9.44
2022-11-10T17:58:21.453Z,9.38
2022-11-10T18:01:19.790Z,9.52
2022-11-10T18:04:06.716Z,9.49
2022-11-10T18:06:53.492Z,9.29
2022-11-10T18:09:40.622Z,9.49
2022-11-10T18:12:28.133Z,9.04
2022-11-10T18:15:16.825Z,9.42
2022-11-10T18:18:03.451Z,9.33
2022-11-10T18:20:50.503Z,9.49
2022-11-10T18:23:37.535Z,9.45
2022-11-10T18:26:24.802Z,9.44
2022-11-10T18:29:11.486Z,9.37
2022-11-10T18:31:58.555Z,9.04
2022-11-10T18:34:44.940Z,9.02
2022-11-10T18:37:36.825Z,9.25
2022-11-10T18:40:25.671Z,9.20
2022-11-10T18:43:13.081Z,8.92
2022-11-10T18:45:59.391Z,8.95
2022-11-10T18:48:47.274Z,8.86
2022-11-10T18:51:34.152Z,9.05
2022-11-10T18:54:21.362Z,9.03
2022-11-10T18:57:11.979Z,8.38
2022-11-10T18:59:58.684Z,9.08
2022-11-10T19:02:45.224Z,8.82
2022-11-10T19:05:32.275Z,8.72
2022-11-10T19:08:18.725Z,8.93
2022-11-10T19:11:12.720Z,8.69
2022-11-10T19:14:03.888Z,8.60
2022-11-10T19:16:53.328Z,8.72
2022-11-10T19:19:40.018Z,8.70
2022-11-10T19:22:27.316Z,8.53
2022-11-10T19:25:14.048Z,8.34
2022-11-10T19:28:01.154Z,8.45
2022-11-10T19:30:47.512Z,8.25
2022-11-10T19:33:37.371Z,8.12
2022-11-10T19:36:27.374Z,8.30
2022-11-10T19:39:14.330Z,8.17
2022-11-10T19:42:01.110Z,7.93
2022-11-10T19:44:48.170Z,8.10
2022-11-10T19:47:34.624Z,8.08
2022-11-10T19:50:21.675Z,7.95
2022-11-10T19:53:08.406Z,8.04
2022-11-10T19:56:27.714Z,7.90
2022-11-10T19:59:20.147Z,7.64
2022-11-10T20:02:08.453Z,8.05
2022-11-10T20:05:13.811Z,7.98
2022-11-10T20:08:12.992Z,7.89
2022-11-10T20:11:07.694Z,7.83
2022-11-10T20:14:00.852Z,7.60
2022-11-10T20:16:47.629Z,7.68
2022-11-10T20:19:40.937Z,7.66
2022-11-10T20:22:27.841Z,7.40
2022-11-10T20:25:15.281Z,7.36
2022-11-10T20:28:06.067Z,7.35
2022-11-10T20:30:57.948Z,7.53
2022-11-10T20:33:45.576Z,7.14
2022-11-10T20:36:36.565Z,7.46
2022-11-10T20:39:23.255Z,7.46
2022-11-10T20:42:13.719Z,7.45
2022-11-10T20:45:00.501Z,7.45
2022-11-10T20:47:47.877Z,7.44
2022-11-10T20:50:34.621Z,7.40
2022-11-10T20:53:23.151Z,7.08
2022-11-10T20:56:12.390Z,6.74
2022-11-10T20:58:59.352Z,7.31
2022-11-10T21:01:46.861Z,7.31
2022-11-10T21:04:36.843Z,7.40
2022-11-10T21:07:27.657Z,7.12
2022-11-10T21:10:14.717Z,7.02
2022-11-10T21:13:01.267Z,7.12
2022-11-10T21:15:59.837Z,7.17
2022-11-10T21:18:46.591Z,7.13
2022-11-10T21:21:36.542Z,7.24
2022-11-10T21:24:23.233Z,7.34
2022-11-10T21:27:12.529Z,7.18
2022-11-10T21:29:59.312Z,7.52
2022-11-10T21:32:46.287Z,7.55
2022-11-10T21:35:38.180Z,7.54
2022-11-10T21:38:25.115Z,7.44
2022-11-10T21:41:12.485Z,7.70
2022-11-10T21:43:59.597Z,7.62
2022-11-10T21:46:47.571Z,7.70
2022-11-10T21:49:34.193Z,7.85
2022-11-10T21:52:20.954Z,7.90
2022-11-10T21:55:08.748Z,7.96
2022-11-10T21:57:59.159Z,7.92
2022-11-10T22:00:46.292Z,7.88
2022-11-10T22:03:34.442Z,7.77
2022-11-10T22:06:23.637Z,8.02
2022-11-10T22:09:10.731Z,7.59
2022-11-10T22:12:16.195Z,8.04
2022-11-10T22:15:22.555Z,7.99
2022-11-10T22:18:34.602Z,7.98
2022-11-10T22:21:21.296Z,7.89
2022-11-10T22:24:24.696Z,7.81
2022-11-10T22:27:11.427Z,7.71
2022-11-10T22:29:58.749Z,7.75
2022-11-10T22:32:45.078Z,7.42
2022-11-10T22:35:44.105Z,7.71
2022-11-10T22:38:39.186Z,7.42
2022-11-10T22:41:44.775Z,7.53
2022-11-10T22:44:31.358Z,7.41
2022-11-10T22:47:18.168Z,7.06
2022-11-10T22:50:05.702Z,7.26
2022-11-10T22:52:52.334Z,7.11
2022-11-10T22:55:38.769Z,6.54
2022-11-10T22:58:25.603Z,6.90
2022-11-10T23:01:12.983Z,6.82
2022-11-10T23:04:01.769Z,6.81
2022-11-10T23:06:48.805Z,6.69
2022-11-10T23:09:35.621Z,6.57
2022-11-10T23:12:22.155Z,6.33
2022-11-10T23:15:09.455Z,6.47
2022-11-10T23:17:56.094Z,6.18
2022-11-10T23:20:42.606Z,6.44
2022-11-10T23:23:33.527Z,6.38
2022-11-10T23:26:34.400Z,6.06
2022-11-10T23:29:21.077Z,6.16
2022-11-10T23:32:07.875Z,6.04
2022-11-10T23:34:54.593Z,6.03
2022-11-10T23:37:41.336Z,5.98
2022-11-10T23:40:28.043Z,5.87
2022-11-10T23:43:15.735Z,5.87
2022-11-10T23:46:07.127Z,5.79
2022-11-10T23:48:54.111Z,5.06
2022-11-10T23:51:40.464Z,5.40
2022-11-10T23:54:27.488Z,5.61
2022-11-10T23:57:14.134Z,5.55
